sensor_id;sensor_type;location;lat;lon;timestamp;P1;durP1;ratioP1;P2;durP2;ratioP2
23270;SDS011;11804;51.118;17.058;2024-03-22T00:02:20;9.73;;;4.90;;
23270;SDS011;11804;51.118;17.058;2024-03-22T00:04:53;9.40;;;4.07;;
23270;SDS011;11804;51.118;17.058;2024-03-22T00:07:17;11.67;;;4.17;;
23270;SDS011;11804;51.118;17.058;2024-03-22T00:09:47;9.33;;;3.93;;
23270;SDS011;11804;51.118;17.058;2024-03-22T00:12:15;9.70;;;4.00;;
23270;SDS011;11804;51.118;17.058;2024-03-22T00:14:42;8.83;;;4.23;;
23270;SDS011;11804;51.118;17.058;2024-03-22T00:17:10;10.20;;;4.53;;
23270;SDS011;11804;51.118;17.058;2024-03-22T00:19:37;10.40;;;4.40;;
23270;SDS011;11804;51.118;17.058;2024-03-22T00:22:04;9.43;;;4.20;;
23270;SDS011;11804;51.118;17.058;2024-03-22T00:24:32;12.00;;;4.73;;
23270;SDS011;11804;51.118;17.058;2024-03-22T00:26:59;8.67;;;3.80;;
23270;SDS011;11804;51.118;17.058;2024-03-22T00:29:26;9.90;;;4.10;;
23270;SDS011;11804;51.118;17.058;2024-03-22T00:31:54;10.03;;;4.17;;
23270;SDS011;11804;51.118;17.058;2024-03-22T00:34:21;8.83;;;3.97;;
23270;SDS011;11804;51.118;17.058;2024-03-22T00:36:49;9.63;;;4.20;;
23270;SDS011;11804;51.118;17.058;2024-03-22T00:39:17;11.13;;;3.87;;
23270;SDS011;11804;51.118;17.058;2024-03-22T00:41:45;7.60;;;4.00;;
23270;SDS011;11804;51.118;17.058;2024-03-22T00:44:12;10.90;;;4.27;;
23270;SDS011;11804;51.118;17.058;2024-03-22T00:46:40;10.90;;;4.00;;
23270;SDS011;11804;51.118;17.058;2024-03-22T00:49:10;9.03;;;3.80;;
23270;SDS011;11804;51.118;17.058;2024-03-22T00:51:37;9.50;;;4.60;;
23270;SDS011;11804;51.118;17.058;2024-03-22T00:54:05;11.57;;;5.00;;
23270;SDS011;11804;51.118;17.058;2024-03-22T00:56:32;12.27;;;4.30;;
23270;SDS011;11804;51.118;17.058;2024-03-22T00:59:00;12.97;;;4.70;;
23270;SDS011;11804;51.118;17.058;2024-03-22T01:01:28;11.60;;;4.07;;
23270;SDS011;11804;51.118;17.058;2024-03-22T01:03:56;9.83;;;3.47;;
23270;SDS011;11804;51.118;17.058;2024-03-22T01:06:23;9.00;;;3.73;;
23270;SDS011;11804;51.118;17.058;2024-03-22T01:08:52;9.87;;;3.70;;
23270;SDS011;11804;51.118;17.058;2024-03-22T01:11:20;8.17;;;3.53;;
23270;SDS011;11804;51.118;17.058;2024-03-22T01:13:47;9.90;;;3.67;;
23270;SDS011;11804;51.118;17.058;2024-03-22T01:16:16;10.93;;;3.87;;
23270;SDS011;11804;51.118;17.058;2024-03-22T01:18:48;8.77;;;3.60;;
23270;SDS011;11804;51.118;17.058;2024-03-22T01:21:13;7.83;;;3.67;;
23270;SDS011;11804;51.118;17.058;2024-03-22T01:23:41;10.10;;;3.60;;
23270;SDS011;11804;51.118;17.058;2024-03-22T01:26:09;8.67;;;3.83;;
23270;SDS011;11804;51.118;17.058;2024-03-22T01:28:36;8.83;;;3.53;;
23270;SDS011;11804;51.118;17.058;2024-03-22T01:31:05;9.63;;;3.37;;
23270;SDS011;11804;51.118;17.058;2024-03-22T01:33:33;8.83;;;3.80;;
23270;SDS011;11804;51.118;17.058;2024-03-22T01:36:01;8.20;;;3.20;;
23270;SDS011;11804;51.118;17.058;2024-03-22T01:38:30;7.90;;;3.43;;
23270;SDS011;11804;51.118;17.058;2024-03-22T01:40:59;7.67;;;3.27;;
23270;SDS011;11804;51.118;17.058;2024-03-22T01:43:26;9.73;;;3.90;;
23270;SDS011;11804;51.118;17.058;2024-03-22T01:45:54;4.47;;;2.43;;
23270;SDS011;11804;51.118;17.058;2024-03-22T01:48:21;8.00;;;3.27;;
23270;SDS011;11804;51.118;17.058;2024-03-22T01:50:50;6.10;;;2.80;;
23270;SDS011;11804;51.118;17.058;2024-03-22T01:53:18;10.40;;;3.83;;
23270;SDS011;11804;51.118;17.058;2024-03-22T01:55:45;5.73;;;2.63;;
23270;SDS011;11804;51.118;17.058;2024-03-22T01:58:12;5.47;;;2.53;;
23270;SDS011;11804;51.118;17.058;2024-03-22T02:00:40;8.20;;;3.37;;
23270;SDS011;11804;51.118;17.058;2024-03-22T02:03:08;8.93;;;3.23;;
23270;SDS011;11804;51.118;17.058;2024-03-22T02:05:35;8.03;;;3.63;;
23270;SDS011;11804;51.118;17.058;2024-03-22T02:08:05;5.43;;;2.90;;
23270;SDS011;11804;51.118;17.058;2024-03-22T02:10:32;10.40;;;3.70;;
23270;SDS011;11804;51.118;17.058;2024-03-22T02:13:00;6.17;;;2.70;;
23270;SDS011;11804;51.118;17.058;2024-03-22T02:15:28;6.13;;;3.27;;
23270;SDS011;11804;51.118;17.058;2024-03-22T02:17:57;7.07;;;2.93;;
23270;SDS011;11804;51.118;17.058;2024-03-22T02:20:24;8.57;;;2.67;;
23270;SDS011;11804;51.118;17.058;2024-03-22T02:22:52;8.93;;;3.20;;
23270;SDS011;11804;51.118;17.058;2024-03-22T02:25:19;8.57;;;3.20;;
23270;SDS011;11804;51.118;17.058;2024-03-22T02:27:46;7.17;;;3.83;;
23270;SDS011;11804;51.118;17.058;2024-03-22T02:30:17;10.53;;;4.10;;
23270;SDS011;11804;51.118;17.058;2024-03-22T02:32:44;8.77;;;3.53;;
23270;SDS011;11804;51.118;17.058;2024-03-22T02:35:12;9.93;;;2.97;;
23270;SDS011;11804;51.118;17.058;2024-03-22T02:37:39;6.67;;;3.03;;
23270;SDS011;11804;51.118;17.058;2024-03-22T02:40:12;7.73;;;3.63;;
23270;SDS011;11804;51.118;17.058;2024-03-22T02:42:35;7.20;;;3.70;;
23270;SDS011;11804;51.118;17.058;2024-03-22T02:45:03;10.50;;;3.37;;
23270;SDS011;11804;51.118;17.058;2024-03-22T02:47:30;7.40;;;3.33;;
23270;SDS011;11804;51.118;17.058;2024-03-22T02:49:57;9.07;;;3.00;;
23270;SDS011;11804;51.118;17.058;2024-03-22T02:52:25;5.53;;;3.00;;
23270;SDS011;11804;51.118;17.058;2024-03-22T02:54:52;7.67;;;3.70;;
23270;SDS011;11804;51.118;17.058;2024-03-22T02:57:19;6.97;;;3.30;;
23270;SDS011;11804;51.118;17.058;2024-03-22T02:59:47;7.87;;;3.20;;
23270;SDS011;11804;51.118;17.058;2024-03-22T03:02:15;6.83;;;2.50;;
23270;SDS011;11804;51.118;17.058;2024-03-22T03:04:42;7.23;;;3.40;;
23270;SDS011;11804;51.118;17.058;2024-03-22T03:07:09;8.03;;;3.30;;
23270;SDS011;11804;51.118;17.058;2024-03-22T03:09:37;7.20;;;3.07;;
23270;SDS011;11804;51.118;17.058;2024-03-22T03:12:04;8.43;;;3.20;;
23270;SDS011;11804;51.118;17.058;2024-03-22T03:14:32;7.67;;;3.03;;
23270;SDS011;11804;51.118;17.058;2024-03-22T03:16:59;7.10;;;3.27;;
23270;SDS011;11804;51.118;17.058;2024-03-22T03:19:26;7.60;;;3.90;;
23270;SDS011;11804;51.118;17.058;2024-03-22T03:21:54;6.67;;;2.90;;
23270;SDS011;11804;51.118;17.058;2024-03-22T03:24:21;9.17;;;3.67;;
23270;SDS011;11804;51.118;17.058;2024-03-22T03:26:48;8.67;;;3.53;;
23270;SDS011;11804;51.118;17.058;2024-03-22T03:29:16;9.03;;;3.13;;
23270;SDS011;11804;51.118;17.058;2024-03-22T03:31:43;10.27;;;3.70;;
23270;SDS011;11804;51.118;17.058;2024-03-22T03:34:10;8.43;;;3.43;;
23270;SDS011;11804;51.118;17.058;2024-03-22T03:36:37;11.97;;;3.90;;
23270;SDS011;11804;51.118;17.058;2024-03-22T03:39:05;10.87;;;3.67;;
23270;SDS011;11804;51.118;17.058;2024-03-22T03:41:32;6.47;;;3.47;;
23270;SDS011;11804;51.118;17.058;2024-03-22T03:44:00;11.23;;;3.60;;
23270;SDS011;11804;51.118;17.058;2024-03-22T03:46:27;11.17;;;3.93;;
23270;SDS011;11804;51.118;17.058;2024-03-22T03:48:55;8.83;;;3.97;;
23270;SDS011;11804;51.118;17.058;2024-03-22T03:51:22;11.30;;;4.80;;
23270;SDS011;11804;51.118;17.058;2024-03-22T03:53:50;13.07;;;5.67;;
23270;SDS011;11804;51.118;17.058;2024-03-22T03:56:17;13.63;;;4.97;;
23270;SDS011;11804;51.118;17.058;2024-03-22T03:58:49;11.83;;;4.57;;
23270;SDS011;11804;51.118;17.058;2024-03-22T04:01:13;11.90;;;5.60;;
23270;SDS011;11804;51.118;17.058;2024-03-22T04:03:40;14.07;;;5.63;;
23270;SDS011;11804;51.118;17.058;2024-03-22T04:06:08;16.33;;;5.77;;
23270;SDS011;11804;51.118;17.058;2024-03-22T04:08:35;15.77;;;5.27;;
23270;SDS011;11804;51.118;17.058;2024-03-22T04:11:02;12.27;;;5.80;;
23270;SDS011;11804;51.118;17.058;2024-03-22T04:13:29;11.47;;;5.23;;
23270;SDS011;11804;51.118;17.058;2024-03-22T04:15:58;13.47;;;5.17;;
23270;SDS011;11804;51.118;17.058;2024-03-22T04:18:26;11.10;;;4.63;;
23270;SDS011;11804;51.118;17.058;2024-03-22T04:20:58;9.13;;;3.80;;
23270;SDS011;11804;51.118;17.058;2024-03-22T04:23:22;10.33;;;4.83;;
23270;SDS011;11804;51.118;17.058;2024-03-22T04:25:57;8.47;;;4.30;;
23270;SDS011;11804;51.118;17.058;2024-03-22T04:28:26;11.07;;;4.07;;
23270;SDS011;11804;51.118;17.058;2024-03-22T04:31:01;11.40;;;3.90;;
23270;SDS011;11804;51.118;17.058;2024-03-22T04:33:29;7.80;;;3.47;;
23270;SDS011;11804;51.118;17.058;2024-03-22T04:35:57;11.57;;;4.63;;
23270;SDS011;11804;51.118;17.058;2024-03-22T04:38:25;11.33;;;4.20;;
23270;SDS011;11804;51.118;17.058;2024-03-22T04:40:53;8.43;;;3.40;;
23270;SDS011;11804;51.118;17.058;2024-03-22T04:43:21;8.87;;;4.07;;
23270;SDS011;11804;51.118;17.058;2024-03-22T04:45:48;10.60;;;3.90;;
23270;SDS011;11804;51.118;17.058;2024-03-22T04:48:17;8.67;;;3.53;;
23270;SDS011;11804;51.118;17.058;2024-03-22T04:50:45;10.40;;;4.13;;
23270;SDS011;11804;51.118;17.058;2024-03-22T04:53:14;12.03;;;4.63;;
23270;SDS011;11804;51.118;17.058;2024-03-22T04:55:42;7.53;;;3.53;;
23270;SDS011;11804;51.118;17.058;2024-03-22T04:58:14;8.83;;;4.27;;
23270;SDS011;11804;51.118;17.058;2024-03-22T05:00:42;7.90;;;3.50;;
23270;SDS011;11804;51.118;17.058;2024-03-22T05:03:09;9.77;;;4.27;;
23270;SDS011;11804;51.118;17.058;2024-03-22T05:05:37;12.13;;;4.17;;
23270;SDS011;11804;51.118;17.058;2024-03-22T05:08:05;9.10;;;4.33;;
23270;SDS011;11804;51.118;17.058;2024-03-22T05:10:32;8.10;;;4.23;;
23270;SDS011;11804;51.118;17.058;2024-03-22T05:13:00;10.97;;;3.73;;
23270;SDS011;11804;51.118;17.058;2024-03-22T05:15:27;8.50;;;3.37;;
23270;SDS011;11804;51.118;17.058;2024-03-22T05:17:55;10.20;;;3.87;;
23270;SDS011;11804;51.118;17.058;2024-03-22T05:20:27;14.67;;;4.83;;
23270;SDS011;11804;51.118;17.058;2024-03-22T05:22:51;12.43;;;5.07;;
23270;SDS011;11804;51.118;17.058;2024-03-22T05:25:19;15.17;;;5.47;;
23270;SDS011;11804;51.118;17.058;2024-03-22T05:27:46;11.53;;;4.67;;
23270;SDS011;11804;51.118;17.058;2024-03-22T05:30:14;10.43;;;4.83;;
23270;SDS011;11804;51.118;17.058;2024-03-22T05:32:41;12.67;;;5.83;;
23270;SDS011;11804;51.118;17.058;2024-03-22T05:35:08;11.73;;;5.03;;
23270;SDS011;11804;51.118;17.058;2024-03-22T05:37:36;11.33;;;4.63;;
23270;SDS011;11804;51.118;17.058;2024-03-22T05:40:03;10.27;;;4.57;;
23270;SDS011;11804;51.118;17.058;2024-03-22T05:42:31;12.17;;;4.60;;
23270;SDS011;11804;51.118;17.058;2024-03-22T05:44:58;8.67;;;4.10;;
23270;SDS011;11804;51.118;17.058;2024-03-22T05:47:25;8.97;;;4.77;;
23270;SDS011;11804;51.118;17.058;2024-03-22T05:49:53;18.60;;;7.23;;
23270;SDS011;11804;51.118;17.058;2024-03-22T05:52:20;10.83;;;5.03;;
23270;SDS011;11804;51.118;17.058;2024-03-22T05:54:47;9.90;;;4.37;;
23270;SDS011;11804;51.118;17.058;2024-03-22T05:57:15;9.37;;;3.90;;
23270;SDS011;11804;51.118;17.058;2024-03-22T05:59:42;10.63;;;4.47;;
23270;SDS011;11804;51.118;17.058;2024-03-22T06:02:09;6.90;;;3.77;;
23270;SDS011;11804;51.118;17.058;2024-03-22T06:04:37;9.63;;;4.07;;
23270;SDS011;11804;51.118;17.058;2024-03-22T06:07:05;8.13;;;4.07;;
23270;SDS011;11804;51.118;17.058;2024-03-22T06:09:33;7.03;;;3.40;;
23270;SDS011;11804;51.118;17.058;2024-03-22T06:12:13;8.93;;;3.93;;
23270;SDS011;11804;51.118;17.058;2024-03-22T06:14:41;8.97;;;3.87;;
23270;SDS011;11804;51.118;17.058;2024-03-22T06:17:10;9.53;;;3.93;;
23270;SDS011;11804;51.118;17.058;2024-03-22T06:19:38;10.10;;;3.70;;
23270;SDS011;11804;51.118;17.058;2024-03-22T06:22:05;13.00;;;5.40;;
23270;SDS011;11804;51.118;17.058;2024-03-22T06:24:32;11.23;;;4.10;;
23270;SDS011;11804;51.118;17.058;2024-03-22T06:27:00;10.97;;;3.80;;
23270;SDS011;11804;51.118;17.058;2024-03-22T06:29:27;11.20;;;4.03;;
23270;SDS011;11804;51.118;17.058;2024-03-22T06:31:54;11.57;;;4.27;;
23270;SDS011;11804;51.118;17.058;2024-03-22T06:34:22;11.40;;;4.70;;
23270;SDS011;11804;51.118;17.058;2024-03-22T06:36:49;10.57;;;3.83;;
23270;SDS011;11804;51.118;17.058;2024-03-22T06:39:17;10.97;;;4.50;;
23270;SDS011;11804;51.118;17.058;2024-03-22T06:41:44;13.93;;;4.63;;
23270;SDS011;11804;51.118;17.058;2024-03-22T06:44:12;12.20;;;4.87;;
23270;SDS011;11804;51.118;17.058;2024-03-22T06:46:40;12.27;;;4.20;;
23270;SDS011;11804;51.118;17.058;2024-03-22T06:49:07;12.20;;;4.47;;
23270;SDS011;11804;51.118;17.058;2024-03-22T06:51:34;10.40;;;4.10;;
23270;SDS011;11804;51.118;17.058;2024-03-22T06:54:02;13.47;;;4.83;;
23270;SDS011;11804;51.118;17.058;2024-03-22T06:56:30;13.73;;;4.40;;
23270;SDS011;11804;51.118;17.058;2024-03-22T06:58:57;10.87;;;3.87;;
23270;SDS011;11804;51.118;17.058;2024-03-22T07:01:24;12.33;;;4.67;;
23270;SDS011;11804;51.118;17.058;2024-03-22T07:03:52;12.43;;;4.30;;
23270;SDS011;11804;51.118;17.058;2024-03-22T07:06:19;10.00;;;4.03;;
23270;SDS011;11804;51.118;17.058;2024-03-22T07:08:46;10.37;;;4.63;;
23270;SDS011;11804;51.118;17.058;2024-03-22T07:11:14;7.60;;;3.73;;
23270;SDS011;11804;51.118;17.058;2024-03-22T07:13:41;7.10;;;3.97;;
23270;SDS011;11804;51.118;17.058;2024-03-22T07:16:09;12.03;;;5.00;;
23270;SDS011;11804;51.118;17.058;2024-03-22T07:18:36;10.23;;;4.93;;
23270;SDS011;11804;51.118;17.058;2024-03-22T07:21:04;11.90;;;5.03;;
23270;SDS011;11804;51.118;17.058;2024-03-22T07:23:31;10.23;;;5.03;;
23270;SDS011;11804;51.118;17.058;2024-03-22T07:25:58;14.77;;;5.20;;
23270;SDS011;11804;51.118;17.058;2024-03-22T07:28:26;9.27;;;4.37;;
23270;SDS011;11804;51.118;17.058;2024-03-22T07:30:55;11.70;;;4.60;;
23270;SDS011;11804;51.118;17.058;2024-03-22T07:33:22;12.23;;;4.50;;
23270;SDS011;11804;51.118;17.058;2024-03-22T07:35:49;12.33;;;4.67;;
23270;SDS011;11804;51.118;17.058;2024-03-22T07:38:16;16.17;;;6.30;;
23270;SDS011;11804;51.118;17.058;2024-03-22T07:40:44;17.47;;;5.83;;
23270;SDS011;11804;51.118;17.058;2024-03-22T07:43:11;11.03;;;4.23;;
23270;SDS011;11804;51.118;17.058;2024-03-22T07:45:40;14.50;;;5.17;;
23270;SDS011;11804;51.118;17.058;2024-03-22T07:48:07;11.73;;;5.17;;
23270;SDS011;11804;51.118;17.058;2024-03-22T07:50:35;12.93;;;5.23;;
23270;SDS011;11804;51.118;17.058;2024-03-22T07:53:02;12.60;;;4.57;;
23270;SDS011;11804;51.118;17.058;2024-03-22T07:55:29;15.93;;;5.13;;
23270;SDS011;11804;51.118;17.058;2024-03-22T07:57:57;10.93;;;4.67;;
23270;SDS011;11804;51.118;17.058;2024-03-22T08:00:24;15.33;;;5.27;;
23270;SDS011;11804;51.118;17.058;2024-03-22T08:02:54;10.60;;;4.67;;
23270;SDS011;11804;51.118;17.058;2024-03-22T08:05:21;14.13;;;5.30;;
23270;SDS011;11804;51.118;17.058;2024-03-22T08:07:48;16.03;;;5.03;;
23270;SDS011;11804;51.118;17.058;2024-03-22T08:10:16;10.40;;;4.67;;
23270;SDS011;11804;51.118;17.058;2024-03-22T08:12:43;9.90;;;4.30;;
23270;SDS011;11804;51.118;17.058;2024-03-22T08:15:11;19.00;;;5.10;;
23270;SDS011;11804;51.118;17.058;2024-03-22T08:17:38;14.13;;;4.87;;
23270;SDS011;11804;51.118;17.058;2024-03-22T08:20:06;9.60;;;4.03;;
23270;SDS011;11804;51.118;17.058;2024-03-22T08:22:33;12.57;;;5.00;;
23270;SDS011;11804;51.118;17.058;2024-03-22T08:25:00;10.70;;;4.57;;
23270;SDS011;11804;51.118;17.058;2024-03-22T08:27:29;9.97;;;4.33;;
23270;SDS011;11804;51.118;17.058;2024-03-22T08:29:57;12.90;;;4.77;;
23270;SDS011;11804;51.118;17.058;2024-03-22T08:32:24;8.70;;;4.33;;
23270;SDS011;11804;51.118;17.058;2024-03-22T08:34:51;9.37;;;3.83;;
23270;SDS011;11804;51.118;17.058;2024-03-22T08:37:18;10.37;;;4.47;;
23270;SDS011;11804;51.118;17.058;2024-03-22T08:39:46;10.03;;;3.83;;
23270;SDS011;11804;51.118;17.058;2024-03-22T08:42:13;10.70;;;3.90;;
23270;SDS011;11804;51.118;17.058;2024-03-22T08:44:40;9.23;;;4.27;;
23270;SDS011;11804;51.118;17.058;2024-03-22T08:47:09;10.37;;;4.47;;
23270;SDS011;11804;51.118;17.058;2024-03-22T08:49:36;10.93;;;4.87;;
23270;SDS011;11804;51.118;17.058;2024-03-22T08:52:03;10.27;;;4.47;;
23270;SDS011;11804;51.118;17.058;2024-03-22T08:54:31;10.37;;;4.80;;
23270;SDS011;11804;51.118;17.058;2024-03-22T08:56:58;11.60;;;4.90;;
23270;SDS011;11804;51.118;17.058;2024-03-22T08:59:25;10.93;;;4.50;;
23270;SDS011;11804;51.118;17.058;2024-03-22T09:01:53;13.33;;;4.93;;
23270;SDS011;11804;51.118;17.058;2024-03-22T09:04:20;11.40;;;4.57;;
23270;SDS011;11804;51.118;17.058;2024-03-22T09:06:47;10.60;;;5.17;;
23270;SDS011;11804;51.118;17.058;2024-03-22T09:09:15;8.50;;;5.07;;
23270;SDS011;11804;51.118;17.058;2024-03-22T09:11:43;7.53;;;3.87;;
23270;SDS011;11804;51.118;17.058;2024-03-22T09:14:10;10.08;;;4.00;;
23270;SDS011;11804;51.118;17.058;2024-03-22T09:16:37;7.30;;;4.12;;
23270;SDS011;11804;51.118;17.058;2024-03-22T09:19:05;10.03;;;4.30;;
23270;SDS011;11804;51.118;17.058;2024-03-22T09:21:32;8.03;;;4.30;;
23270;SDS011;11804;51.118;17.058;2024-03-22T09:23:59;10.77;;;5.17;;
23270;SDS011;11804;51.118;17.058;2024-03-22T09:26:28;9.77;;;4.37;;
23270;SDS011;11804;51.118;17.058;2024-03-22T09:28:56;9.00;;;4.30;;
23270;SDS011;11804;51.118;17.058;2024-03-22T09:31:23;8.30;;;3.87;;
23270;SDS011;11804;51.118;17.058;2024-03-22T09:33:50;12.27;;;4.80;;
23270;SDS011;11804;51.118;17.058;2024-03-22T09:36:18;8.93;;;4.10;;
23270;SDS011;11804;51.118;17.058;2024-03-22T09:38:45;11.93;;;4.43;;
23270;SDS011;11804;51.118;17.058;2024-03-22T09:41:13;11.10;;;4.23;;
23270;SDS011;11804;51.118;17.058;2024-03-22T09:43:41;14.13;;;5.17;;
23270;SDS011;11804;51.118;17.058;2024-03-22T09:46:11;6.90;;;3.20;;
23270;SDS011;11804;51.118;17.058;2024-03-22T09:48:39;8.23;;;3.73;;
23270;SDS011;11804;51.118;17.058;2024-03-22T09:51:08;7.47;;;3.87;;
23270;SDS011;11804;51.118;17.058;2024-03-22T09:53:35;8.87;;;3.63;;
23270;SDS011;11804;51.118;17.058;2024-03-22T09:56:03;8.10;;;3.70;;
23270;SDS011;11804;51.118;17.058;2024-03-22T09:58:30;7.17;;;3.23;;
23270;SDS011;11804;51.118;17.058;2024-03-22T10:00:57;7.77;;;3.87;;
23270;SDS011;11804;51.118;17.058;2024-03-22T10:03:26;7.87;;;3.47;;
23270;SDS011;11804;51.118;17.058;2024-03-22T10:05:54;10.57;;;3.97;;
23270;SDS011;11804;51.118;17.058;2024-03-22T10:08:21;10.77;;;3.43;;
23270;SDS011;11804;51.118;17.058;2024-03-22T10:10:48;10.00;;;3.47;;
23270;SDS011;11804;51.118;17.058;2024-03-22T10:13:16;5.57;;;3.03;;
23270;SDS011;11804;51.118;17.058;2024-03-22T10:15:43;8.77;;;3.97;;
23270;SDS011;11804;51.118;17.058;2024-03-22T10:18:10;10.17;;;4.10;;
23270;SDS011;11804;51.118;17.058;2024-03-22T10:20:38;10.60;;;3.80;;
23270;SDS011;11804;51.118;17.058;2024-03-22T10:23:05;8.57;;;3.77;;
23270;SDS011;11804;51.118;17.058;2024-03-22T10:25:34;11.30;;;4.20;;
23270;SDS011;11804;51.118;17.058;2024-03-22T10:28:02;9.70;;;3.57;;
23270;SDS011;11804;51.118;17.058;2024-03-22T10:30:30;9.50;;;3.80;;
23270;SDS011;11804;51.118;17.058;2024-03-22T10:32:58;9.63;;;4.43;;
23270;SDS011;11804;51.118;17.058;2024-03-22T10:35:25;11.50;;;3.70;;
23270;SDS011;11804;51.118;17.058;2024-03-22T10:37:53;7.80;;;3.47;;
23270;SDS011;11804;51.118;17.058;2024-03-22T10:40:20;7.17;;;3.60;;
23270;SDS011;11804;51.118;17.058;2024-03-22T10:42:47;8.10;;;2.90;;
23270;SDS011;11804;51.118;17.058;2024-03-22T10:45:15;6.90;;;3.37;;
23270;SDS011;11804;51.118;17.058;2024-03-22T10:47:42;7.47;;;3.70;;
23270;SDS011;11804;51.118;17.058;2024-03-22T10:50:12;7.50;;;3.10;;
23270;SDS011;11804;51.118;17.058;2024-03-22T10:55:11;7.22;;;3.37;;
23270;SDS011;11804;51.118;17.058;2024-03-22T10:57:37;7.40;;;3.58;;
23270;SDS011;11804;51.118;17.058;2024-03-22T11:00:09;6.83;;;3.72;;
23270;SDS011;11804;51.118;17.058;2024-03-22T11:02:36;7.27;;;3.50;;
23270;SDS011;11804;51.118;17.058;2024-03-22T11:05:04;7.53;;;3.30;;
23270;SDS011;11804;51.118;17.058;2024-03-22T11:07:33;6.83;;;3.20;;
23270;SDS011;11804;51.118;17.058;2024-03-22T11:10:00;7.33;;;3.90;;
23270;SDS011;11804;51.118;17.058;2024-03-22T11:12:32;7.07;;;3.77;;
23270;SDS011;11804;51.118;17.058;2024-03-22T11:15:00;16.20;;;3.92;;
23270;SDS011;11804;51.118;17.058;2024-03-22T11:17:27;7.47;;;3.98;;
23270;SDS011;11804;51.118;17.058;2024-03-22T11:19:54;8.38;;;3.52;;
23270;SDS011;11804;51.118;17.058;2024-03-22T11:22:21;8.63;;;3.27;;
23270;SDS011;11804;51.118;17.058;2024-03-22T11:24:49;6.90;;;3.47;;
23270;SDS011;11804;51.118;17.058;2024-03-22T11:27:16;7.17;;;3.60;;
23270;SDS011;11804;51.118;17.058;2024-03-22T11:29:44;8.97;;;3.07;;
23270;SDS011;11804;51.118;17.058;2024-03-22T11:32:12;8.17;;;3.60;;
23270;SDS011;11804;51.118;17.058;2024-03-22T11:34:40;8.13;;;3.47;;
23270;SDS011;11804;51.118;17.058;2024-03-22T11:37:07;7.78;;;3.42;;
23270;SDS011;11804;51.118;17.058;2024-03-22T11:39:36;9.40;;;4.05;;
23270;SDS011;11804;51.118;17.058;2024-03-22T11:42:04;7.90;;;3.58;;
23270;SDS011;11804;51.118;17.058;2024-03-22T11:44:33;8.20;;;3.50;;
23270;SDS011;11804;51.118;17.058;2024-03-22T11:47:02;10.50;;;4.93;;
23270;SDS011;11804;51.118;17.058;2024-03-22T11:49:29;6.93;;;3.50;;
23270;SDS011;11804;51.118;17.058;2024-03-22T11:51:56;7.90;;;3.83;;
23270;SDS011;11804;51.118;17.058;2024-03-22T11:54:24;7.90;;;3.70;;
23270;SDS011;11804;51.118;17.058;2024-03-22T11:56:51;8.23;;;3.60;;
23270;SDS011;11804;51.118;17.058;2024-03-22T11:59:19;6.63;;;3.00;;
23270;SDS011;11804;51.118;17.058;2024-03-22T12:01:47;9.63;;;3.07;;
23270;SDS011;11804;51.118;17.058;2024-03-22T12:04:14;6.33;;;2.83;;
23270;SDS011;11804;51.118;17.058;2024-03-22T12:06:42;6.60;;;2.90;;
23270;SDS011;11804;51.118;17.058;2024-03-22T12:09:10;5.63;;;2.77;;
23270;SDS011;11804;51.118;17.058;2024-03-22T12:11:39;6.00;;;3.17;;
23270;SDS011;11804;51.118;17.058;2024-03-22T12:14:06;3.77;;;2.30;;
23270;SDS011;11804;51.118;17.058;2024-03-22T12:16:34;6.17;;;2.80;;
23270;SDS011;11804;51.118;17.058;2024-03-22T12:19:01;4.73;;;2.40;;
23270;SDS011;11804;51.118;17.058;2024-03-22T12:21:29;5.80;;;2.60;;
23270;SDS011;11804;51.118;17.058;2024-03-22T12:23:58;6.57;;;2.73;;
23270;SDS011;11804;51.118;17.058;2024-03-22T12:26:25;5.30;;;2.43;;
23270;SDS011;11804;51.118;17.058;2024-03-22T12:28:52;6.07;;;2.77;;
23270;SDS011;11804;51.118;17.058;2024-03-22T12:31:20;4.97;;;2.52;;
23270;SDS011;11804;51.118;17.058;2024-03-22T12:33:47;5.05;;;2.75;;
23270;SDS011;11804;51.118;17.058;2024-03-22T12:36:14;9.98;;;4.17;;
23270;SDS011;11804;51.118;17.058;2024-03-22T12:38:41;10.43;;;3.33;;
23270;SDS011;11804;51.118;17.058;2024-03-22T12:41:09;6.83;;;3.30;;
23270;SDS011;11804;51.118;17.058;2024-03-22T12:43:36;7.80;;;3.97;;
23270;SDS011;11804;51.118;17.058;2024-03-22T12:46:04;7.43;;;3.30;;
23270;SDS011;11804;51.118;17.058;2024-03-22T12:48:31;6.07;;;3.30;;
23270;SDS011;11804;51.118;17.058;2024-03-22T12:50:58;7.42;;;3.47;;
23270;SDS011;11804;51.118;17.058;2024-03-22T12:53:27;7.28;;;3.65;;
23270;SDS011;11804;51.118;17.058;2024-03-22T12:55:54;10.93;;;3.63;;
23270;SDS011;11804;51.118;17.058;2024-03-22T12:58:21;10.20;;;3.67;;
23270;SDS011;11804;51.118;17.058;2024-03-22T13:00:49;9.78;;;3.15;;
23270;SDS011;11804;51.118;17.058;2024-03-22T13:03:16;6.62;;;2.95;;
23270;SDS011;11804;51.118;17.058;2024-03-22T13:05:44;7.10;;;2.60;;
23270;SDS011;11804;51.118;17.058;2024-03-22T13:08:11;10.07;;;3.10;;
23270;SDS011;11804;51.118;17.058;2024-03-22T13:10:38;6.97;;;2.70;;
23270;SDS011;11804;51.118;17.058;2024-03-22T13:13:07;5.85;;;2.60;;
23270;SDS011;11804;51.118;17.058;2024-03-22T13:15:35;7.22;;;2.62;;
23270;SDS011;11804;51.118;17.058;2024-03-22T13:18:04;4.62;;;2.35;;
23270;SDS011;11804;51.118;17.058;2024-03-22T13:20:31;6.97;;;3.03;;
23270;SDS011;11804;51.118;17.058;2024-03-22T13:22:59;6.83;;;2.85;;
23270;SDS011;11804;51.118;17.058;2024-03-22T13:25:27;4.97;;;2.52;;
23270;SDS011;11804;51.118;17.058;2024-03-22T13:27:54;7.80;;;2.92;;
23270;SDS011;11804;51.118;17.058;2024-03-22T13:30:22;4.80;;;2.52;;
23270;SDS011;11804;51.118;17.058;2024-03-22T13:32:49;5.30;;;2.90;;
23270;SDS011;11804;51.118;17.058;2024-03-22T13:35:17;7.45;;;2.25;;
23270;SDS011;11804;51.118;17.058;2024-03-22T13:37:44;5.62;;;2.22;;
23270;SDS011;11804;51.118;17.058;2024-03-22T13:40:11;5.03;;;2.62;;
23270;SDS011;11804;51.118;17.058;2024-03-22T13:42:39;3.30;;;1.75;;
23270;SDS011;11804;51.118;17.058;2024-03-22T13:45:06;5.53;;;2.72;;
23270;SDS011;11804;51.118;17.058;2024-03-22T13:47:34;3.65;;;2.15;;
23270;SDS011;11804;51.118;17.058;2024-03-22T13:50:04;8.60;;;3.20;;
23270;SDS011;11804;51.118;17.058;2024-03-22T13:52:32;4.03;;;2.50;;
23270;SDS011;11804;51.118;17.058;2024-03-22T13:55:01;5.97;;;2.10;;
23270;SDS011;11804;51.118;17.058;2024-03-22T13:57:29;4.22;;;1.98;;
23270;SDS011;11804;51.118;17.058;2024-03-22T13:59:56;5.03;;;2.80;;
23270;SDS011;11804;51.118;17.058;2024-03-22T14:02:23;5.75;;;2.17;;
23270;SDS011;11804;51.118;17.058;2024-03-22T14:04:50;3.12;;;2.12;;
23270;SDS011;11804;51.118;17.058;2024-03-22T14:07:18;3.50;;;1.90;;
23270;SDS011;11804;51.118;17.058;2024-03-22T14:09:48;3.40;;;2.17;;
23270;SDS011;11804;51.118;17.058;2024-03-22T14:12:14;4.22;;;2.12;;
23270;SDS011;11804;51.118;17.058;2024-03-22T14:14:42;4.47;;;2.27;;
23270;SDS011;11804;51.118;17.058;2024-03-22T14:17:09;4.35;;;2.12;;
23270;SDS011;11804;51.118;17.058;2024-03-22T14:19:38;2.35;;;1.37;;
23270;SDS011;11804;51.118;17.058;2024-03-22T14:22:05;16.37;;;2.33;;
23270;SDS011;11804;51.118;17.058;2024-03-22T14:24:33;7.22;;;3.35;;
23270;SDS011;11804;51.118;17.058;2024-03-22T14:27:02;5.20;;;2.02;;
23270;SDS011;11804;51.118;17.058;2024-03-22T14:29:29;4.57;;;1.60;;
23270;SDS011;11804;51.118;17.058;2024-03-22T14:31:57;2.47;;;1.33;;
23270;SDS011;11804;51.118;17.058;2024-03-22T14:34:24;2.83;;;1.77;;